sensor_id;sensor_type;location;lat;lon;timestamp;P1;durP1;ratioP1;P2;durP2;ratioP2
15067;SDS011;7633;60.024;18.770;2022-07-24T00:01:37;0.60;;;0.60;;
15067;SDS011;7633;60.024;18.770;2022-07-24T00:04:03;1.17;;;0.70;;
15067;SDS011;7633;60.024;18.770;2022-07-24T00:06:28;0.70;;;0.70;;
15067;SDS011;7633;60.024;18.770;2022-07-24T00:08:54;1.43;;;0.77;;
15067;SDS011;7633;60.024;18.770;2022-07-24T00:11:19;0.80;;;0.60;;
15067;SDS011;7633;60.024;18.770;2022-07-24T00:13:44;1.33;;;0.70;;
15067;SDS011;7633;60.024;18.770;2022-07-24T00:16:10;0.57;;;0.57;;
15067;SDS011;7633;60.024;18.770;2022-07-24T00:18:35;1.27;;;0.60;;
15067;SDS011;7633;60.024;18.770;2022-07-24T00:21:01;0.63;;;0.60;;
15067;SDS011;7633;60.024;18.770;2022-07-24T00:23:26;0.57;;;0.57;;
15067;SDS011;7633;60.024;18.770;2022-07-24T00:25:52;0.70;;;0.70;;
15067;SDS011;7633;60.024;18.770;2022-07-24T00:28:17;0.50;;;0.50;;
15067;SDS011;7633;60.024;18.770;2022-07-24T00:30:43;0.53;;;0.53;;
15067;SDS011;7633;60.024;18.770;2022-07-24T00:33:08;0.60;;;0.60;;
15067;SDS011;7633;60.024;18.770;2022-07-24T00:35:34;0.60;;;0.50;;
15067;SDS011;7633;60.024;18.770;2022-07-24T00:37:59;0.60;;;0.60;;
15067;SDS011;7633;60.024;18.770;2022-07-24T00:40:25;0.50;;;0.50;;
15067;SDS011;7633;60.024;18.770;2022-07-24T00:42:51;0.70;;;0.70;;
15067;SDS011;7633;60.024;18.770;2022-07-24T00:45:16;0.80;;;0.70;;
15067;SDS011;7633;60.024;18.770;2022-07-24T00:47:42;0.77;;;0.70;;
15067;SDS011;7633;60.024;18.770;2022-07-24T00:50:07;0.63;;;0.63;;
15067;SDS011;7633;60.024;18.770;2022-07-24T00:52:33;1.67;;;0.70;;
15067;SDS011;7633;60.024;18.770;2022-07-24T00:54:58;2.10;;;0.70;;
15067;SDS011;7633;60.024;18.770;2022-07-24T00:57:24;0.83;;;0.80;;
15067;SDS011;7633;60.024;18.770;2022-07-24T00:59:49;0.60;;;0.60;;
15067;SDS011;7633;60.024;18.770;2022-07-24T01:02:14;0.77;;;0.77;;
15067;SDS011;7633;60.024;18.770;2022-07-24T01:04:40;0.70;;;0.70;;
15067;SDS011;7633;60.024;18.770;2022-07-24T01:07:06;1.70;;;0.60;;
15067;SDS011;7633;60.024;18.770;2022-07-24T01:09:32;0.67;;;0.67;;
15067;SDS011;7633;60.024;18.770;2022-07-24T01:11:57;1.33;;;0.67;;
15067;SDS011;7633;60.024;18.770;2022-07-24T01:14:23;0.80;;;0.70;;
15067;SDS011;7633;60.024;18.770;2022-07-24T01:16:48;0.77;;;0.77;;
15067;SDS011;7633;60.024;18.770;2022-07-24T01:19:14;0.70;;;0.70;;
15067;SDS011;7633;60.024;18.770;2022-07-24T01:21:48;1.00;;;0.70;;
15067;SDS011;7633;60.024;18.770;2022-07-24T01:24:13;0.60;;;0.60;;
15067;SDS011;7633;60.024;18.770;2022-07-24T01:26:39;0.70;;;0.70;;
15067;SDS011;7633;60.024;18.770;2022-07-24T01:29:04;0.77;;;0.77;;
15067;SDS011;7633;60.024;18.770;2022-07-24T01:31:30;0.80;;;0.80;;
15067;SDS011;7633;60.024;18.770;2022-07-24T01:33:55;0.80;;;0.80;;
15067;SDS011;7633;60.024;18.770;2022-07-24T01:36:21;0.97;;;0.87;;
15067;SDS011;7633;60.024;18.770;2022-07-24T01:38:46;0.70;;;0.70;;
15067;SDS011;7633;60.024;18.770;2022-07-24T01:41:12;1.53;;;0.97;;
15067;SDS011;7633;60.024;18.770;2022-07-24T01:43:37;0.90;;;0.90;;
15067;SDS011;7633;60.024;18.770;2022-07-24T01:46:03;0.90;;;0.90;;
15067;SDS011;7633;60.024;18.770;2022-07-24T01:48:28;0.90;;;0.90;;
15067;SDS011;7633;60.024;18.770;2022-07-24T01:50:54;1.33;;;0.80;;
15067;SDS011;7633;60.024;18.770;2022-07-24T01:53:19;1.03;;;0.93;;
15067;SDS011;7633;60.024;18.770;2022-07-24T01:55:45;1.43;;;0.90;;
15067;SDS011;7633;60.024;18.770;2022-07-24T01:58:10;1.20;;;1.00;;
15067;SDS011;7633;60.024;18.770;2022-07-24T02:00:35;1.00;;;1.00;;
15067;SDS011;7633;60.024;18.770;2022-07-24T02:03:01;0.83;;;0.80;;
15067;SDS011;7633;60.024;18.770;2022-07-24T02:05:26;1.03;;;0.90;;
15067;SDS011;7633;60.024;18.770;2022-07-24T02:07:56;0.93;;;0.80;;
15067;SDS011;7633;60.024;18.770;2022-07-24T02:10:23;1.20;;;1.10;;
15067;SDS011;7633;60.024;18.770;2022-07-24T02:12:48;0.90;;;0.90;;
15067;SDS011;7633;60.024;18.770;2022-07-24T02:15:14;1.40;;;0.90;;
15067;SDS011;7633;60.024;18.770;2022-07-24T02:17:44;1.40;;;1.00;;
15067;SDS011;7633;60.024;18.770;2022-07-24T02:20:09;1.97;;;0.90;;
15067;SDS011;7633;60.024;18.770;2022-07-24T02:22:35;0.87;;;0.87;;
15067;SDS011;7633;60.024;18.770;2022-07-24T02:25:00;1.27;;;1.10;;
15067;SDS011;7633;60.024;18.770;2022-07-24T02:27:26;1.10;;;0.93;;
15067;SDS011;7633;60.024;18.770;2022-07-24T02:29:51;1.07;;;0.80;;
15067;SDS011;7633;60.024;18.770;2022-07-24T02:32:16;0.70;;;0.70;;
15067;SDS011;7633;60.024;18.770;2022-07-24T02:34:42;1.20;;;0.90;;
15067;SDS011;7633;60.024;18.770;2022-07-24T02:37:08;2.03;;;0.80;;
15067;SDS011;7633;60.024;18.770;2022-07-24T02:39:33;1.03;;;0.93;;
15067;SDS011;7633;60.024;18.770;2022-07-24T02:41:58;2.47;;;1.10;;
15067;SDS011;7633;60.024;18.770;2022-07-24T02:44:24;1.90;;;0.90;;
15067;SDS011;7633;60.024;18.770;2022-07-24T02:46:49;1.17;;;1.10;;
15067;SDS011;7633;60.024;18.770;2022-07-24T02:49:14;1.20;;;1.10;;
15067;SDS011;7633;60.024;18.770;2022-07-24T02:51:40;1.00;;;1.00;;
15067;SDS011;7633;60.024;18.770;2022-07-24T02:54:05;1.17;;;0.97;;
15067;SDS011;7633;60.024;18.770;2022-07-24T02:56:30;0.80;;;0.80;;
15067;SDS011;7633;60.024;18.770;2022-07-24T02:58:57;0.80;;;0.80;;
15067;SDS011;7633;60.024;18.770;2022-07-24T03:01:22;1.10;;;1.00;;
15067;SDS011;7633;60.024;18.770;2022-07-24T03:03:47;1.37;;;0.90;;
15067;SDS011;7633;60.024;18.770;2022-07-24T03:06:13;1.67;;;0.80;;
15067;SDS011;7633;60.024;18.770;2022-07-24T03:08:38;1.00;;;1.00;;
15067;SDS011;7633;60.024;18.770;2022-07-24T03:11:03;1.20;;;1.10;;
15067;SDS011;7633;60.024;18.770;2022-07-24T03:13:29;0.93;;;0.93;;
15067;SDS011;7633;60.024;18.770;2022-07-24T03:15:54;0.90;;;0.90;;
15067;SDS011;7633;60.024;18.770;2022-07-24T03:18:19;2.83;;;0.97;;
15067;SDS011;7633;60.024;18.770;2022-07-24T03:20:45;2.10;;;1.07;;
15067;SDS011;7633;60.024;18.770;2022-07-24T03:23:10;1.30;;;1.20;;
15067;SDS011;7633;60.024;18.770;2022-07-24T03:25:35;1.00;;;1.00;;
15067;SDS011;7633;60.024;18.770;2022-07-24T03:28:01;1.00;;;1.00;;
15067;SDS011;7633;60.024;18.770;2022-07-24T03:30:26;0.70;;;0.70;;
15067;SDS011;7633;60.024;18.770;2022-07-24T03:32:51;0.87;;;0.87;;
15067;SDS011;7633;60.024;18.770;2022-07-24T03:35:17;1.87;;;0.90;;
15067;SDS011;7633;60.024;18.770;2022-07-24T03:37:42;1.07;;;1.07;;
15067;SDS011;7633;60.024;18.770;2022-07-24T03:40:08;0.80;;;0.80;;
15067;SDS011;7633;60.024;18.770;2022-07-24T03:42:34;1.17;;;1.00;;
15067;SDS011;7633;60.024;18.770;2022-07-24T03:44:59;0.80;;;0.80;;
15067;SDS011;7633;60.024;18.770;2022-07-24T03:47:25;1.00;;;1.00;;
15067;SDS011;7633;60.024;18.770;2022-07-24T03:49:50;1.20;;;1.10;;
15067;SDS011;7633;60.024;18.770;2022-07-24T03:52:16;1.00;;;1.00;;
15067;SDS011;7633;60.024;18.770;2022-07-24T03:54:41;1.10;;;1.00;;
15067;SDS011;7633;60.024;18.770;2022-07-24T03:57:06;0.80;;;0.80;;
15067;SDS011;7633;60.024;18.770;2022-07-24T03:59:32;1.17;;;1.00;;
15067;SDS011;7633;60.024;18.770;2022-07-24T04:01:57;1.50;;;0.87;;
15067;SDS011;7633;60.024;18.770;2022-07-24T04:04:22;0.90;;;0.90;;
15067;SDS011;7633;60.024;18.770;2022-07-24T04:06:48;1.00;;;1.00;;
15067;SDS011;7633;60.024;18.770;2022-07-24T04:09:13;3.33;;;1.00;;
15067;SDS011;7633;60.024;18.770;2022-07-24T04:11:39;0.80;;;0.80;;
15067;SDS011;7633;60.024;18.770;2022-07-24T04:14:04;0.80;;;0.80;;
15067;SDS011;7633;60.024;18.770;2022-07-24T04:16:30;0.80;;;0.80;;
15067;SDS011;7633;60.024;18.770;2022-07-24T04:18:55;0.70;;;0.70;;
15067;SDS011;7633;60.024;18.770;2022-07-24T04:21:20;0.90;;;0.90;;
15067;SDS011;7633;60.024;18.770;2022-07-24T04:23:46;0.97;;;0.90;;
15067;SDS011;7633;60.024;18.770;2022-07-24T04:26:11;0.80;;;0.80;;
15067;SDS011;7633;60.024;18.770;2022-07-24T04:28:37;0.80;;;0.70;;
15067;SDS011;7633;60.024;18.770;2022-07-24T04:31:03;0.70;;;0.70;;
15067;SDS011;7633;60.024;18.770;2022-07-24T04:33:29;0.70;;;0.70;;
15067;SDS011;7633;60.024;18.770;2022-07-24T04:35:54;0.75;;;0.75;;
15067;SDS011;7633;60.024;18.770;2022-07-24T04:38:19;0.80;;;0.80;;
15067;SDS011;7633;60.024;18.770;2022-07-24T04:40:45;1.02;;;0.80;;
15067;SDS011;7633;60.024;18.770;2022-07-24T04:43:10;0.85;;;0.80;;
15067;SDS011;7633;60.024;18.770;2022-07-24T04:45:35;0.80;;;0.80;;
15067;SDS011;7633;60.024;18.770;2022-07-24T04:48:01;1.40;;;0.80;;
15067;SDS011;7633;60.024;18.770;2022-07-24T04:50:27;1.02;;;0.77;;
15067;SDS011;7633;60.024;18.770;2022-07-24T04:52:52;1.08;;;0.93;;
15067;SDS011;7633;60.024;18.770;2022-07-24T04:55:17;0.82;;;0.82;;
15067;SDS011;7633;60.024;18.770;2022-07-24T04:57:43;0.70;;;0.70;;
15067;SDS011;7633;60.024;18.770;2022-07-24T05:00:10;1.08;;;0.85;;
15067;SDS011;7633;60.024;18.770;2022-07-24T05:02:36;0.80;;;0.80;;
15067;SDS011;7633;60.024;18.770;2022-07-24T05:05:02;0.80;;;0.80;;
15067;SDS011;7633;60.024;18.770;2022-07-24T05:07:28;0.80;;;0.80;;
15067;SDS011;7633;60.024;18.770;2022-07-24T05:09:53;1.08;;;0.90;;
15067;SDS011;7633;60.024;18.770;2022-07-24T05:12:18;0.80;;;0.80;;
15067;SDS011;7633;60.024;18.770;2022-07-24T05:14:44;0.82;;;0.80;;
15067;SDS011;7633;60.024;18.770;2022-07-24T05:17:09;1.00;;;1.00;;
15067;SDS011;7633;60.024;18.770;2022-07-24T05:19:34;0.80;;;0.70;;
15067;SDS011;7633;60.024;18.770;2022-07-24T05:22:00;0.98;;;0.93;;
15067;SDS011;7633;60.024;18.770;2022-07-24T05:24:25;1.30;;;1.10;;
15067;SDS011;7633;60.024;18.770;2022-07-24T05:26:52;1.10;;;1.00;;
15067;SDS011;7633;60.024;18.770;2022-07-24T05:29:17;1.00;;;0.95;;
15067;SDS011;7633;60.024;18.770;2022-07-24T05:31:43;1.85;;;1.00;;
15067;SDS011;7633;60.024;18.770;2022-07-24T05:34:08;1.55;;;1.05;;
15067;SDS011;7633;60.024;18.770;2022-07-24T05:36:34;0.90;;;0.90;;
15067;SDS011;7633;60.024;18.770;2022-07-24T05:38:59;1.75;;;1.00;;
15067;SDS011;7633;60.024;18.770;2022-07-24T05:41:24;0.95;;;0.80;;
15067;SDS011;7633;60.024;18.770;2022-07-24T05:43:50;0.80;;;0.80;;
15067;SDS011;7633;60.024;18.770;2022-07-24T05:46:15;0.80;;;0.80;;
15067;SDS011;7633;60.024;18.770;2022-07-24T05:48:41;0.80;;;0.80;;
15067;SDS011;7633;60.024;18.770;2022-07-24T05:51:06;1.05;;;0.90;;
15067;SDS011;7633;60.024;18.770;2022-07-24T05:53:31;0.85;;;0.85;;
15067;SDS011;7633;60.024;18.770;2022-07-24T05:55:57;0.85;;;0.85;;
15067;SDS011;7633;60.024;18.770;2022-07-24T05:58:22;1.38;;;0.80;;
15067;SDS011;7633;60.024;18.770;2022-07-24T06:00:47;1.85;;;0.90;;
15067;SDS011;7633;60.024;18.770;2022-07-24T06:03:13;0.75;;;0.75;;
15067;SDS011;7633;60.024;18.770;2022-07-24T06:05:38;0.80;;;0.80;;
15067;SDS011;7633;60.024;18.770;2022-07-24T06:08:04;0.70;;;0.70;;
15067;SDS011;7633;60.024;18.770;2022-07-24T06:10:29;1.10;;;1.00;;
15067;SDS011;7633;60.024;18.770;2022-07-24T06:12:57;1.20;;;1.10;;
15067;SDS011;7633;60.024;18.770;2022-07-24T06:15:23;1.00;;;0.90;;
15067;SDS011;7633;60.024;18.770;2022-07-24T06:17:48;0.82;;;0.82;;
15067;SDS011;7633;60.024;18.770;2022-07-24T06:20:14;0.70;;;0.70;;
15067;SDS011;7633;60.024;18.770;2022-07-24T06:22:41;0.90;;;0.90;;
15067;SDS011;7633;60.024;18.770;2022-07-24T06:25:07;0.77;;;0.70;;
15067;SDS011;7633;60.024;18.770;2022-07-24T06:27:33;0.90;;;0.90;;
15067;SDS011;7633;60.024;18.770;2022-07-24T06:29:58;0.90;;;0.80;;
15067;SDS011;7633;60.024;18.770;2022-07-24T06:32:23;0.80;;;0.80;;
15067;SDS011;7633;60.024;18.770;2022-07-24T06:34:49;0.85;;;0.85;;
15067;SDS011;7633;60.024;18.770;2022-07-24T06:37:14;1.45;;;0.70;;
15067;SDS011;7633;60.024;18.770;2022-07-24T06:39:40;2.97;;;0.80;;
15067;SDS011;7633;60.024;18.770;2022-07-24T06:42:05;0.75;;;0.75;;
15067;SDS011;7633;60.024;18.770;2022-07-24T06:44:30;0.95;;;0.70;;
15067;SDS011;7633;60.024;18.770;2022-07-24T06:46:58;0.80;;;0.80;;
15067;SDS011;7633;60.024;18.770;2022-07-24T06:49:23;0.80;;;0.80;;
15067;SDS011;7633;60.024;18.770;2022-07-24T06:51:48;1.30;;;0.68;;
15067;SDS011;7633;60.024;18.770;2022-07-24T06:54:15;0.60;;;0.60;;
15067;SDS011;7633;60.024;18.770;2022-07-24T06:56:40;0.63;;;0.60;;
15067;SDS011;7633;60.024;18.770;2022-07-24T06:59:07;1.13;;;0.60;;
15067;SDS011;7633;60.024;18.770;2022-07-24T07:01:33;0.80;;;0.60;;
15067;SDS011;7633;60.024;18.770;2022-07-24T07:03:58;0.98;;;0.63;;
15067;SDS011;7633;60.024;18.770;2022-07-24T07:06:24;0.60;;;0.60;;
15067;SDS011;7633;60.024;18.770;2022-07-24T07:08:50;1.15;;;0.90;;
15067;SDS011;7633;60.024;18.770;2022-07-24T07:11:16;0.70;;;0.70;;
15067;SDS011;7633;60.024;18.770;2022-07-24T07:13:41;0.80;;;0.50;;
15067;SDS011;7633;60.024;18.770;2022-07-24T07:16:06;0.70;;;0.70;;
15067;SDS011;7633;60.024;18.770;2022-07-24T07:18:32;0.77;;;0.70;;
15067;SDS011;7633;60.024;18.770;2022-07-24T07:20:57;0.63;;;0.60;;
15067;SDS011;7633;60.024;18.770;2022-07-24T07:23:23;1.00;;;0.65;;
15067;SDS011;7633;60.024;18.770;2022-07-24T07:25:49;0.70;;;0.50;;
15067;SDS011;7633;60.024;18.770;2022-07-24T07:28:14;0.40;;;0.40;;
15067;SDS011;7633;60.024;18.770;2022-07-24T07:30:40;0.60;;;0.60;;
15067;SDS011;7633;60.024;18.770;2022-07-24T07:33:05;0.60;;;0.60;;
15067;SDS011;7633;60.024;18.770;2022-07-24T07:35:31;0.77;;;0.60;;
15067;SDS011;7633;60.024;18.770;2022-07-24T07:37:56;0.77;;;0.60;;
15067;SDS011;7633;60.024;18.770;2022-07-24T07:40:22;0.60;;;0.60;;
15067;SDS011;7633;60.024;18.770;2022-07-24T07:42:47;1.00;;;0.68;;
15067;SDS011;7633;60.024;18.770;2022-07-24T07:45:12;1.02;;;0.50;;
15067;SDS011;7633;60.024;18.770;2022-07-24T07:47:38;0.73;;;0.47;;
15067;SDS011;7633;60.024;18.770;2022-07-24T07:50:07;0.55;;;0.50;;
15067;SDS011;7633;60.024;18.770;2022-07-24T07:52:32;0.50;;;0.50;;
15067;SDS011;7633;60.024;18.770;2022-07-24T07:54:57;0.57;;;0.57;;
15067;SDS011;7633;60.024;18.770;2022-07-24T07:57:26;0.47;;;0.47;;
15067;SDS011;7633;60.024;18.770;2022-07-24T07:59:52;0.50;;;0.50;;
15067;SDS011;7633;60.024;18.770;2022-07-24T08:02:17;1.05;;;0.60;;
15067;SDS011;7633;60.024;18.770;2022-07-24T08:04:42;0.50;;;0.50;;
15067;SDS011;7633;60.024;18.770;2022-07-24T08:07:08;0.40;;;0.40;;
15067;SDS011;7633;60.024;18.770;2022-07-24T08:09:33;0.45;;;0.45;;
15067;SDS011;7633;60.024;18.770;2022-07-24T08:11:59;0.50;;;0.50;;
15067;SDS011;7633;60.024;18.770;2022-07-24T08:14:24;0.50;;;0.50;;
15067;SDS011;7633;60.024;18.770;2022-07-24T08:16:49;0.52;;;0.52;;
15067;SDS011;7633;60.024;18.770;2022-07-24T08:19:15;0.60;;;0.60;;
15067;SDS011;7633;60.024;18.770;2022-07-24T08:21:40;0.98;;;0.50;;
15067;SDS011;7633;60.024;18.770;2022-07-24T08:24:06;0.60;;;0.60;;
15067;SDS011;7633;60.024;18.770;2022-07-24T08:26:31;0.60;;;0.60;;
15067;SDS011;7633;60.024;18.770;2022-07-24T08:28:59;0.60;;;0.55;;
15067;SDS011;7633;60.024;18.770;2022-07-24T08:31:25;0.60;;;0.50;;
15067;SDS011;7633;60.024;18.770;2022-07-24T08:33:51;0.40;;;0.40;;
15067;SDS011;7633;60.024;18.770;2022-07-24T08:36:16;0.50;;;0.50;;
15067;SDS011;7633;60.024;18.770;2022-07-24T08:38:41;0.50;;;0.50;;
15067;SDS011;7633;60.024;18.770;2022-07-24T08:41:07;0.40;;;0.40;;
15067;SDS011;7633;60.024;18.770;2022-07-24T08:43:32;0.50;;;0.50;;
15067;SDS011;7633;60.024;18.770;2022-07-24T08:45:58;0.90;;;0.50;;
15067;SDS011;7633;60.024;18.770;2022-07-24T08:48:24;0.60;;;0.60;;
15067;SDS011;7633;60.024;18.770;2022-07-24T08:50:51;0.60;;;0.60;;
15067;SDS011;7633;60.024;18.770;2022-07-24T08:53:19;0.50;;;0.50;;
15067;SDS011;7633;60.024;18.770;2022-07-24T08:55:44;0.90;;;0.50;;
15067;SDS011;7633;60.024;18.770;2022-07-24T08:58:09;0.60;;;0.50;;
15067;SDS011;7633;60.024;18.770;2022-07-24T09:00:35;0.50;;;0.50;;
15067;SDS011;7633;60.024;18.770;2022-07-24T09:03:00;0.70;;;0.60;;
15067;SDS011;7633;60.024;18.770;2022-07-24T09:05:26;0.52;;;0.50;;
15067;SDS011;7633;60.024;18.770;2022-07-24T09:08:05;0.40;;;0.40;;
15067;SDS011;7633;60.024;18.770;2022-07-24T09:10:30;1.00;;;0.50;;
15067;SDS011;7633;60.024;18.770;2022-07-24T09:12:59;0.60;;;0.50;;
15067;SDS011;7633;60.024;18.770;2022-07-24T09:15:42;0.90;;;0.68;;
15067;SDS011;7633;60.024;18.770;2022-07-24T09:18:08;0.95;;;0.50;;
15067;SDS011;7633;60.024;18.770;2022-07-24T09:20:37;0.50;;;0.50;;
15067;SDS011;7633;60.024;18.770;2022-07-24T09:23:03;0.63;;;0.50;;
15067;SDS011;7633;60.024;18.770;2022-07-24T09:25:28;0.80;;;0.50;;
15067;SDS011;7633;60.024;18.770;2022-07-24T09:32:54;1.00;;;0.50;;
15067;SDS011;7633;60.024;18.770;2022-07-24T09:35:34;0.50;;;0.50;;
15067;SDS011;7633;60.024;18.770;2022-07-24T09:38:00;0.60;;;0.50;;
15067;SDS011;7633;60.024;18.770;2022-07-24T09:40:30;0.60;;;0.60;;
15067;SDS011;7633;60.024;18.770;2022-07-24T09:43:42;0.73;;;0.60;;
15067;SDS011;7633;60.024;18.770;2022-07-24T09:46:03;0.50;;;0.50;;
15067;SDS011;7633;60.024;18.770;2022-07-24T09:50:54;0.65;;;0.60;;
15067;SDS011;7633;60.024;18.770;2022-07-24T09:53:21;0.57;;;0.50;;
15067;SDS011;7633;60.024;18.770;2022-07-24T09:58:21;1.15;;;0.60;;
15067;SDS011;7633;60.024;18.770;2022-07-24T10:00:47;0.50;;;0.50;;
15067;SDS011;7633;60.024;18.770;2022-07-24T10:03:14;1.02;;;0.50;;
15067;SDS011;7633;60.024;18.770;2022-07-24T10:05:42;0.55;;;0.55;;
15067;SDS011;7633;60.024;18.770;2022-07-24T10:08:10;0.60;;;0.60;;
15067;SDS011;7633;60.024;18.770;2022-07-24T10:10:37;0.50;;;0.50;;
15067;SDS011;7633;60.024;18.770;2022-07-24T10:13:03;0.82;;;0.60;;
15067;SDS011;7633;60.024;18.770;2022-07-24T10:15:29;0.50;;;0.50;;
15067;SDS011;7633;60.024;18.770;2022-07-24T10:18:13;1.02;;;0.60;;
15067;SDS011;7633;60.024;18.770;2022-07-24T10:20:40;1.67;;;0.50;;
15067;SDS011;7633;60.024;18.770;2022-07-24T10:23:06;0.50;;;0.50;;
15067;SDS011;7633;60.024;18.770;2022-07-24T10:25:44;0.50;;;0.50;;
15067;SDS011;7633;60.024;18.770;2022-07-24T10:28:14;1.08;;;0.50;;
15067;SDS011;7633;60.024;18.770;2022-07-24T10:30:43;0.95;;;0.60;;
15067;SDS011;7633;60.024;18.770;2022-07-24T10:33:09;0.73;;;0.60;;
15067;SDS011;7633;60.024;18.770;2022-07-24T10:35:35;0.60;;;0.60;;
15067;SDS011;7633;60.024;18.770;2022-07-24T10:40:45;0.85;;;0.73;;
15067;SDS011;7633;60.024;18.770;2022-07-24T10:45:41;0.43;;;0.43;;
15067;SDS011;7633;60.024;18.770;2022-07-24T10:58:50;0.60;;;0.60;;
15067;SDS011;7633;60.024;18.770;2022-07-24T11:04:23;0.60;;;0.60;;
15067;SDS011;7633;60.024;18.770;2022-07-24T11:09:14;0.60;;;0.60;;
15067;SDS011;7633;60.024;18.770;2022-07-24T11:12:26;0.50;;;0.50;;
15067;SDS011;7633;60.024;18.770;2022-07-24T11:14:48;0.60;;;0.60;;
15067;SDS011;7633;60.024;18.770;2022-07-24T11:19:56;0.50;;;0.50;;
15067;SDS011;7633;60.024;18.770;2022-07-24T11:22:29;0.88;;;0.57;;
15067;SDS011;7633;60.024;18.770;2022-07-24T11:25:05;0.60;;;0.60;;
15067;SDS011;7633;60.024;18.770;2022-07-24T11:27:40;0.60;;;0.60;;
15067;SDS011;7633;60.024;18.770;2022-07-24T11:30:06;0.50;;;0.50;;
15067;SDS011;7633;60.024;18.770;2022-07-24T11:32:31;0.40;;;0.40;;
15067;SDS011;7633;60.024;18.770;2022-07-24T11:34:57;0.60;;;0.60;;
15067;SDS011;7633;60.024;18.770;2022-07-24T11:37:22;0.80;;;0.80;;
15067;SDS011;7633;60.024;18.770;2022-07-24T11:39:54;0.50;;;0.50;;
15067;SDS011;7633;60.024;18.770;2022-07-24T11:42:19;0.57;;;0.57;;
15067;SDS011;7633;60.024;18.770;2022-07-24T11:44:49;0.55;;;0.50;;
15067;SDS011;7633;60.024;18.770;2022-07-24T11:47:24;0.60;;;0.60;;
15067;SDS011;7633;60.024;18.770;2022-07-24T11:49:50;0.63;;;0.50;;
15067;SDS011;7633;60.024;18.770;2022-07-24T11:52:22;0.60;;;0.60;;
15067;SDS011;7633;60.024;18.770;2022-07-24T11:55:08;0.63;;;0.57;;
15067;SDS011;7633;60.024;18.770;2022-07-24T11:57:35;0.68;;;0.60;;
15067;SDS011;7633;60.024;18.770;2022-07-24T12:00:01;0.45;;;0.45;;
15067;SDS011;7633;60.024;18.770;2022-07-24T12:02:27;0.55;;;0.55;;
15067;SDS011;7633;60.024;18.770;2022-07-24T12:04:53;0.60;;;0.60;;
15067;SDS011;7633;60.024;18.770;2022-07-24T12:07:19;0.40;;;0.40;;
15067;SDS011;7633;60.024;18.770;2022-07-24T12:09:46;0.50;;;0.50;;
15067;SDS011;7633;60.024;18.770;2022-07-24T12:12:31;1.48;;;0.60;;
15067;SDS011;7633;60.024;18.770;2022-07-24T12:15:01;1.00;;;0.50;;
15067;SDS011;7633;60.024;18.770;2022-07-24T12:17:28;1.05;;;0.60;;
15067;SDS011;7633;60.024;18.770;2022-07-24T12:19:54;1.23;;;0.50;;
15067;SDS011;7633;60.024;18.770;2022-07-24T12:22:22;0.63;;;0.60;;
15067;SDS011;7633;60.024;18.770;2022-07-24T12:24:48;0.60;;;0.60;;
15067;SDS011;7633;60.024;18.770;2022-07-24T12:27:30;0.93;;;0.60;;
15067;SDS011;7633;60.024;18.770;2022-07-24T12:29:56;0.50;;;0.50;;
15067;SDS011;7633;60.024;18.770;2022-07-24T12:32:22;0.60;;;0.55;;
15067;SDS011;7633;60.024;18.770;2022-07-24T12:34:48;1.15;;;0.60;;
15067;SDS011;7633;60.024;18.770;2022-07-24T12:37:16;0.50;;;0.50;;
15067;SDS011;7633;60.024;18.770;2022-07-24T12:40:00;0.63;;;0.63;;
15067;SDS011;7633;60.024;18.770;2022-07-24T12:42:31;0.60;;;0.60;;
15067;SDS011;7633;60.024;18.770;2022-07-24T12:45:05;0.63;;;0.63;;
15067;SDS011;7633;60.024;18.770;2022-07-24T12:47:31;0.90;;;0.60;;
15067;SDS011;7633;60.024;18.770;2022-07-24T12:50:10;2.05;;;0.60;;
15067;SDS011;7633;60.024;18.770;2022-07-24T12:52:36;0.85;;;0.60;;
15067;SDS011;7633;60.024;18.770;2022-07-24T12:55:04;0.47;;;0.47;;
15067;SDS011;7633;60.024;18.770;2022-07-24T12:57:43;0.95;;;0.60;;
15067;SDS011;7633;60.024;18.770;2022-07-24T13:00:09;1.15;;;0.50;;
15067;SDS011;7633;60.024;18.770;2022-07-24T13:02:34;0.60;;;0.60;;
15067;SDS011;7633;60.024;18.770;2022-07-24T13:05:00;0.50;;;0.50;;
15067;SDS011;7633;60.024;18.770;2022-07-24T13:07:26;0.40;;;0.40;;
15067;SDS011;7633;60.024;18.770;2022-07-24T13:09:51;1.45;;;0.60;;
15067;SDS011;7633;60.024;18.770;2022-07-24T13:12:18;0.50;;;0.50;;
15067;SDS011;7633;60.024;18.770;2022-07-24T13:14:43;0.85;;;0.73;;
15067;SDS011;7633;60.024;18.770;2022-07-24T13:17:11;0.60;;;0.60;;
15067;SDS011;7633;60.024;18.770;2022-07-24T13:19:40;0.63;;;0.63;;
15067;SDS011;7633;60.024;18.770;2022-07-24T13:22:06;0.50;;;0.50;;
15067;SDS011;7633;60.024;18.770;2022-07-24T13:24:31;0.63;;;0.60;;
15067;SDS011;7633;60.024;18.770;2022-07-24T13:26:58;0.70;;;0.63;;
15067;SDS011;7633;60.024;18.770;2022-07-24T13:29:24;1.85;;;0.60;;
15067;SDS011;7633;60.024;18.770;2022-07-24T13:31:50;0.50;;;0.50;;
15067;SDS011;7633;60.024;18.770;2022-07-24T13:34:15;0.60;;;0.60;;
15067;SDS011;7633;60.024;18.770;2022-07-24T13:36:41;0.60;;;0.60;;
15067;SDS011;7633;60.024;18.770;2022-07-24T13:39:08;0.63;;;0.63;;
15067;SDS011;7633;60.024;18.770;2022-07-24T13:41:33;0.75;;;0.70;;
15067;SDS011;7633;60.024;18.770;2022-07-24T13:43:59;0.70;;;0.65;;
15067;SDS011;7633;60.024;18.770;2022-07-24T13:46:24;0.60;;;0.60;;
15067;SDS011;7633;60.024;18.770;2022-07-24T13:48:50;0.60;;;0.60;;
15067;SDS011;7633;60.024;18.770;2022-07-24T13:51:18;1.15;;;0.60;;
15067;SDS011;7633;60.024;18.770;2022-07-24T13:53:44;0.52;;;0.52;;
15067;SDS011;7633;60.024;18.770;2022-07-24T13:56:10;0.50;;;0.50;;
15067;SDS011;7633;60.024;18.770;2022-07-24T13:58:36;0.65;;;0.60;;
15067;SDS011;7633;60.024;18.770;2022-07-24T14:01:06;0.55;;;0.55;;
15067;SDS011;7633;60.024;18.770;2022-07-24T14:03:32;1.10;;;0.60;;
15067;SDS011;7633;60.024;18.770;2022-07-24T14:05:57;0.60;;;0.60;;
15067;SDS011;7633;60.024;18.770;2022-07-24T14:08:23;0.60;;;0.60;;
15067;SDS011;7633;60.024;18.770;2022-07-24T14:10:48;0.75;;;0.60;;
15067;SDS011;7633;60.024;18.770;2022-07-24T14:13:14;0.60;;;0.60;;
15067;SDS011;7633;60.024;18.770;2022-07-24T14:15:39;0.50;;;0.50;;
15067;SDS011;7633;60.024;18.770;2022-07-24T14:18:04;0.70;;;0.70;;
15067;SDS011;7633;60.024;18.770;2022-07-24T14:20:30;0.60;;;0.60;;
15067;SDS011;7633;60.024;18.770;2022-07-24T14:22:55;0.50;;;0.50;;
15067;SDS011;7633;60.024;18.770;2022-07-24T14:25:21;0.60;;;0.60;;
15067;SDS011;7633;60.024;18.770;2022-07-24T14:27:46;0.60;;;0.60;;
15067;SDS011;7633;60.024;18.770;2022-07-24T14:30:12;0.50;;;0.50;;
15067;SDS011;7633;60.024;18.770;2022-07-24T14:32:37;0.75;;;0.75;;
15067;SDS011;7633;60.024;18.770;2022-07-24T14:35:03;0.40;;;0.40;;
15067;SDS011;7633;60.024;18.770;2022-07-24T14:37:33;0.50;;;0.50;;
15067;SDS011;7633;60.024;18.770;2022-07-24T14:39:58;0.90;;;0.60;;
15067;SDS011;7633;60.024;18.770;2022-07-24T14:42:24;0.50;;;0.50;;
15067;SDS011;7633;60.024;18.770;2022-07-24T14:44:49;0.50;;;0.50;;
15067;SDS011;7633;60.024;18.770;2022-07-24T14:47:14;0.55;;;0.50;;
15067;SDS011;7633;60.024;18.770;2022-07-24T14:49:40;0.50;;;0.50;;
15067;SDS011;7633;60.024;18.770;2022-07-24T14:52:05;0.60;;;0.60;;
15067;SDS011;7633;60.024;18.770;2022-07-24T14:54:30;0.40;;;0.40;;
15067;SDS011;7633;60.024;18.770;2022-07-24T14:56:56;0.55;;;0.50;;
15067;SDS011;7633;60.024;18.770;2022-07-24T14:59:23;0.60;;;0.50;;
15067;SDS011;7633;60.024;18.770;2022-07-24T15:01:48;0.50;;;0.50;;
15067;SDS011;7633;60.024;18.770;2022-07-24T15:04:14;0.57;;;0.57;;
15067;SDS011;7633;60.024;18.770;2022-07-24T15:06:39;0.50;;;0.50;;
15067;SDS011;7633;60.024;18.770;2022-07-24T15:09:05;0.93;;;0.68;;
15067;SDS011;7633;60.024;18.770;2022-07-24T15:11:30;0.55;;;0.55;;
15067;SDS011;7633;60.024;18.770;2022-07-24T15:13:57;0.50;;;0.50;;
15067;SDS011;7633;60.024;18.770;2022-07-24T15:16:22;0.60;;;0.60;;
15067;SDS011;7633;60.024;18.770;2022-07-24T15:18:47;1.50;;;0.70;;